RKTU/CHN METAR and TAF weather

Enter ICAO airport designator
Station Type Date Time Source
RKTU METAR 2019/02/21 11:00 UTC NOAA

RKTU 211100Z 10003KT 4800 BR NSC 01/M02 Q1025


Station Type Date Time Source
RKTU Decoded METAR 2019/02/21 11:00 UTC NOAA

Chongju Ab, Korea, South (RKTU) 36-42N 127-30E 66M
Feb 21, 2019 - 06:00 AM EST / 2019.02.21 1100 UTC
Wind: from the E (100 degrees) at 3 MPH (3 KT):0
Visibility: 2 mile(s):0
Weather: mist
Temperature: 33 F (1 C)
Dew Point: 28 F (-2 C)
Relative Humidity: 80%
Pressure (altimeter): 30.27 in. Hg (1025 hPa)
ob: RKTU 211100Z 10003KT 4800 BR NSC 01/M02 Q1025
cycle: 11

Station Type Date Time Source
RKTU TAF 2019/02/21 23:35 UTC NOAA

TAF
AMD RKTU 202335Z 2123/2206 36006KT 0800 FG SCT030 TX08/2106Z TNM04/2121Z
FM210030 36006KT 1600 BR SCT030
BECMG 2101/2102 4800
BECMG 2102/2103 8000 NSW


Example: see airport list